Strona główna
METAR-TAF:

METAR-TAF

Lotnisko :

Port lotniczy Lille-Lesquin

Lille, Francja

Szerokość geograficzna: 50-34N, Długość geograficzna: 003-06E, wysokość: 48 m

Aktualna obserwacja pogody

Raport powstał 25 minut temu, godzina 06:00 UTC
Wiatr 6 kt od północny wschód
Temperatura 16°C
Wilgotność 51%
Ciśnienie 1021 hPa
Widzialność 10 km lub więcej
Brak chmur poniżej 1500 m i brak chmur cumulonimbus

METAR: LFQQ 010600Z AUTO 04006KT CAVOK 16/06 Q1021 NOSIG

czas: 08:25 (06:25 UTC)

Prognoza

Raport powstał 1 godzina i 25 minut temu, godzina 05:00 UTC
Prognoza ważna od 01 godzina 06 UTC do 02 godzina 12 UTC
Wiatr 8 kt od wschodnio-północny wschód
Widzialność 10 km lub więcej
Brak chmur poniżej 1500 m i brak chmur cumulonimbus
Stopniowe zmiany
od 01 godzina 17 UTC do 01 godzina 19 UTC
Wiatr 10 kt od północ
Stopniowe zmiany
od 01 godzina 23 UTC do 02 godzina 02 UTC
Wiatr 3 kt z kierunków zmiennych

TAF: LFQQ 010500Z 0106/0212 07008KT CAVOK BECMG 0117/0119 01010KT BECMG 0123/0202 VRB03KT

Obserwacja i prognoza pogody dla ponad 4000 lotnisk (raport METAR i TAF).

Dostępne stacje oznaczono żółtymi i czerwonymi punktami na mapie.

Najedź kursorem aby zobaczyć nazwę stacji.

Kliknij aby zobaczyć obserwacje i prognozy pogody.

Aby zmienić mapę: kliknij na zielony przycisk z czarnym krzyżykiem, aby powiększyć; na zielony przycisk z myślnikiem, aby pomniejszyć; na zielone strzałki, aby przejść do map sąsiednich.


METAR-TAF: